Time;durP1;ratioP1;P1;durP2;ratioP2;P2;SDS_P1;SDS_P2;PMS_P1;PMS_P2;Temp;Humidity;BMP_temperature;BMP_pressure;BME280_temperature;BME280_humidity;BME280_pressure;Samples;Min_cycle;Max_cycle;Signal;HPM_P1;HPM_P2
2022/12/01 00:02:03;;;;;;;18.27;11.05;;;;;;;5.40;87.57;101461.38;5049615;28;20039;-76
2022/12/01 00:04:29;;;;;;;21.15;11.63;;;;;;;5.33;87.77;101467.94;5049446;28;20024;-75
2022/12/01 00:06:54;;;;;;;19.38;9.88;;;;;;;5.13;87.79;101433.34;5049633;28;20108;-74
2022/12/01 00:12:03;;;;;;;21.88;11.30;;;;;;;5.37;87.83;101484.66;5051204;28;20032;-75
2022/12/01 00:14:29;;;;;;;16.65;10.35;;;;;;;5.07;87.83;101438.94;5050705;28;20025;-75
2022/12/01 00:16:54;;;;;;;19.98;11.70;;;;;;;5.31;87.44;101485.81;5049656;28;20021;-76
2022/12/01 00:19:24;;;;;;;21.17;10.85;;;;;;;5.27;87.83;101473.53;5049469;28;20543;-76
2022/12/01 00:21:49;;;;;;;18.55;10.63;;;;;;;5.11;87.53;101451.19;5049380;28;20029;-75
2022/12/01 00:24:15;;;;;;;18.25;10.98;;;;;;;5.24;87.52;101487.03;5050314;28;20071;-76
2022/12/01 00:26:40;;;;;;;17.05;10.25;;;;;;;5.26;87.42;101485.13;5053720;28;20021;-76
2022/12/01 00:29:05;;;;;;;20.77;10.70;;;;;;;5.18;87.37;101476.63;5053651;28;20585;-75
2022/12/01 00:31:31;;;;;;;18.98;11.75;;;;;;;5.25;87.01;101491.44;5049857;28;20459;-75
2022/12/01 00:33:56;;;;;;;22.63;10.68;;;;;;;5.21;87.24;101492.50;5049451;28;20393;-77
2022/12/01 00:36:22;;;;;;;17.48;9.95;;;;;;;5.13;86.89;101489.31;5049350;28;20094;-75
2022/12/01 00:38:54;;;;;;;17.33;10.40;;;;;;;5.02;86.79;101477.38;5049100;28;20035;-74
2022/12/01 00:41:20;;;;;;;16.77;11.07;;;;;;;5.03;86.71;101479.13;5049238;28;20039;-75
2022/12/01 00:43:45;;;;;;;22.58;10.73;;;;;;;4.98;86.96;101474.03;5049471;28;20033;-75
2022/12/01 00:46:11;;;;;;;17.70;10.40;;;;;;;5.00;87.33;101484.59;5049030;28;20036;-75
2022/12/01 00:48:36;;;;;;;17.45;10.65;;;;;;;4.91;87.19;101465.44;5050431;28;20076;-76
2022/12/01 00:51:02;;;;;;;15.90;9.93;;;;;;;5.06;87.38;101484.31;5053362;28;20735;-76
2022/12/01 00:53:28;;;;;;;17.38;10.75;;;;;;;5.06;87.59;101473.66;5054399;28;20086;-75
2022/12/01 00:55:53;;;;;;;18.45;10.20;;;;;;;4.92;87.79;101436.97;5061608;28;20476;-78
2022/12/01 00:58:20;;;;;;;19.95;10.65;;;;;;;4.77;87.04;101417.19;5061961;28;20055;-75
2022/12/01 01:00:46;;;;;;;16.65;9.60;;;;;;;5.00;87.33;101457.94;5057346;28;20551;-75
2022/12/01 01:03:11;;;;;;;18.67;10.80;;;;;;;5.05;87.26;101456.78;5052802;28;20116;-76
2022/12/01 01:05:38;;;;;;;20.90;11.20;;;;;;;4.89;87.21;101423.78;5052772;28;20083;-75
2022/12/01 01:08:11;;;;;;;15.57;9.60;;;;;;;5.07;87.13;101449.59;5052549;28;20039;-76
2022/12/01 01:10:42;;;;;;;23.00;11.05;;;;;;;5.06;87.15;101442.53;5052731;28;20054;-75
2022/12/01 01:13:07;;;;;;;16.17;9.90;;;;;;;4.99;87.42;101441.06;5054212;28;20021;-75
2022/12/01 01:15:33;;;;;;;15.18;9.13;;;;;;;5.00;87.49;101436.63;5060325;28;20028;-75
2022/12/01 01:17:59;;;;;;;16.10;9.40;;;;;;;4.97;86.96;101442.94;5052886;28;20029;-76
2022/12/01 01:20:24;;;;;;;20.15;9.52;;;;;;;4.95;86.55;101439.50;5051037;28;20147;-76
2022/12/01 01:22:49;;;;;;;17.10;9.98;;;;;;;4.86;87.36;101431.91;5050230;28;20122;-76
2022/12/01 01:25:15;;;;;;;19.40;11.07;;;;;;;4.88;87.48;101432.72;5052926;28;20033;-75
2022/12/01 01:27:40;;;;;;;17.48;10.32;;;;;;;4.87;87.39;101441.63;5052238;28;20388;-76
2022/12/01 01:30:06;;;;;;;13.38;8.85;;;;;;;4.82;86.64;101412.53;5053901;28;20033;-76
2022/12/01 01:32:32;;;;;;;20.02;9.27;;;;;;;4.86;87.09;101423.94;5059411;28;20029;-76
2022/12/01 01:34:57;;;;;;;10.77;8.43;;;;;;;4.88;86.82;101430.03;5058620;28;20029;-75
2022/12/01 01:37:23;;;;;;;18.17;8.90;;;;;;;4.66;87.01;101392.84;5051824;28;20021;-76
2022/12/01 01:39:48;;;;;;;15.25;8.45;;;;;;;4.89;87.55;101429.97;5052413;28;20029;-74
2022/12/01 01:42:14;;;;;;;14.13;9.63;;;;;;;4.84;87.20;101426.66;5049900;28;20140;-75
2022/12/01 01:44:56;;;;;;;12.55;8.60;;;;;;;4.58;87.55;101402.97;5051987;28;20029;-75
2022/12/01 01:47:39;;;;;;;;;;;;;;;4.67;88.13;101420.34;5052078;28;20061;-74
2022/12/01 01:50:08;;;;;;;18.73;7.80;;;;;;;4.54;88.70;101419.16;5051721;28;19920;-74
2022/12/01 01:52:39;;;;;;;11.57;7.78;;;;;;;4.44;88.94;101415.16;5051667;28;20210;-75
2022/12/01 01:55:06;;;;;;;11.33;6.43;;;;;;;4.46;88.92;101413.31;5052182;28;20025;-76
2022/12/01 01:57:33;;;;;;;10.73;7.50;;;;;;;4.47;88.99;101436.31;5051637;28;20856;-75
2022/12/01 02:00:07;;;;;;;10.32;6.97;;;;;;;4.47;89.24;101433.66;5050722;28;20048;-75
2022/12/01 02:02:39;;;;;;;8.75;6.47;;;;;;;4.49;89.38;101431.81;5052359;28;20554;-76
2022/12/01 02:05:09;;;;;;;11.32;5.85;;;;;;;4.39;89.34;101416.22;5051927;28;20033;-76
2022/12/01 02:07:37;;;;;;;9.23;6.30;;;;;;;4.33;89.27;101405.84;5051928;28;20079;-77
2022/12/01 02:10:23;;;;;;;8.98;6.38;;;;;;;4.24;89.84;101403.56;5052120;28;20017;-77
2022/12/01 02:13:44;;;;;;;8.35;5.78;;;;;;;4.25;90.35;101407.94;4999768;28;20385;-77
2022/12/01 02:16:34;;;;;;;12.65;7.47;;;;;;;4.24;90.79;101398.25;4990190;28;20157;-76
2022/12/01 02:19:17;;;;;;;8.52;6.03;;;;;;;4.35;90.86;101411.97;4990265;28;20035;-74
2022/12/01 02:22:03;;;;;;;9.18;6.07;;;;;;;4.36;90.14;101397.72;4990667;28;20038;-76
2022/12/01 02:24:47;;;;;;;11.88;7.13;;;;;;;4.30;90.71;101403.31;4934936;29;20103;-75
2022/12/01 02:27:30;;;;;;;10.52;6.03;;;;;;;4.33;90.26;101408.50;4933801;29;20590;-76
2022/12/01 02:30:02;;;;;;;10.15;7.10;;;;;;;4.31;90.38;101401.53;4933422;29;20495;-77
2022/12/01 02:32:51;;;;;;;12.00;6.57;;;;;;;4.27;90.84;101397.25;4936548;29;20165;-78
2022/12/01 02:35:26;;;;;;;9.65;6.10;;;;;;;4.17;90.56;101391.44;4933291;29;20059;-75
2022/12/01 02:38:18;;;;;;;12.50;6.40;;;;;;;4.10;91.42;101386.44;4938341;29;20162;-76
2022/12/01 02:40:55;;;;;;;12.05;6.35;;;;;;;4.12;91.51;101385.47;4935108;29;20131;-74
2022/12/01 02:43:44;;;;;;;9.07;5.15;;;;;;;4.09;91.38;101376.75;4931385;29;20524;-76
2022/12/01 02:46:15;;;;;;;8.38;5.43;;;;;;;4.08;91.62;101375.88;4953949;28;20030;-75
2022/12/01 02:48:43;;;;;;;8.57;5.32;;;;;;;4.10;91.58;101374.00;5008954;28;20080;-76
2022/12/01 02:51:30;;;;;;;6.30;4.95;;;;;;;4.12;91.39;101379.28;5008389;28;20085;-77
2022/12/01 02:53:58;;;;;;;8.25;5.10;;;;;;;4.12;91.33;101372.16;5008752;28;20109;-75
2022/12/01 02:56:23;;;;;;;7.28;4.50;;;;;;;4.08;90.81;101386.53;5008516;28;20029;-76
2022/12/01 02:58:49;;;;;;;8.68;5.55;;;;;;;4.02;91.29;101381.47;5008675;28;20422;-76
2022/12/01 03:01:36;;;;;;;8.10;5.07;;;;;;;3.91;91.32;101357.09;5023852;28;20051;-77
2022/12/01 03:04:47;;;;;;;9.32;5.13;;;;;;;4.03;90.94;101375.22;5050776;28;20040;-76
2022/12/01 03:07:22;;;;;;;5.95;4.60;;;;;;;3.95;90.43;101368.47;5049164;28;20511;-75
2022/12/01 03:10:07;;;;;;;7.30;4.93;;;;;;;3.99;90.94;101386.91;5051608;28;20020;-77
2022/12/01 03:12:53;;;;;;;7.32;5.03;;;;;;;3.93;90.97;101363.22;5051365;28;20086;-76
2022/12/01 03:15:29;;;;;;;10.88;4.63;;;;;;;4.01;90.84;101379.72;5051496;28;20119;-75
2022/12/01 03:18:24;;;;;;;6.43;4.60;;;;;;;4.00;90.71;101363.84;5052986;28;20029;-76
2022/12/01 03:21:06;;;;;;;5.80;4.18;;;;;;;4.00;90.64;101367.38;5050346;28;20021;-75
2022/12/01 03:23:37;;;;;;;8.40;4.63;;;;;;;4.01;91.01;101363.75;5049938;28;20136;-75
2022/12/01 03:26:07;;;;;;;6.40;4.32;;;;;;;3.98;91.03;101363.88;5050102;28;20033;-74
2022/12/01 03:28:38;;;;;;;5.43;3.65;;;;;;;4.00;91.05;101362.03;5050204;28;20207;-75
2022/12/01 03:31:08;;;;;;;6.00;4.18;;;;;;;4.01;90.68;101358.44;5047298;28;20441;-75
2022/12/01 03:33:42;;;;;;;4.78;3.63;;;;;;;4.05;90.20;101378.66;5049578;28;20025;-75
2022/12/01 03:36:24;;;;;;;5.55;4.55;;;;;;;4.07;90.39;101379.47;5049844;28;20032;-75
2022/12/01 03:38:59;;;;;;;6.47;3.92;;;;;;;4.08;90.40;101375.88;5049861;28;20044;-74
2022/12/01 03:41:30;;;;;;;4.75;4.18;;;;;;;4.15;90.68;101380.00;5052067;28;20385;-75
2022/12/01 03:44:03;;;;;;;6.15;4.18;;;;;;;4.10;90.31;101376.66;5055843;28;20033;-74
2022/12/01 03:46:52;;;;;;;6.80;4.57;;;;;;;4.14;90.07;101386.25;5055263;28;20566;-75
2022/12/01 03:49:20;;;;;;;5.10;3.47;;;;;;;4.15;89.76;101390.66;5049712;28;20455;-74
2022/12/01 03:51:58;;;;;;;8.35;4.53;;;;;;;4.15;89.62;101388.00;5049603;28;20096;-75
2022/12/01 03:54:54;;;;;;;4.25;3.22;;;;;;;4.24;89.85;101382.28;5049567;28;20036;-75
2022/12/01 03:57:28;;;;;;;6.13;4.03;;;;;;;4.11;89.16;101353.56;5049671;28;20028;-75
2022/12/01 03:59:54;;;;;;;5.88;3.45;;;;;;;4.29;89.39;101398.03;5049482;28;20044;-75
2022/12/01 04:02:20;;;;;;;7.45;3.38;;;;;;;4.28;89.42;101397.16;5049153;28;20033;-75
2022/12/01 04:04:45;;;;;;;7.75;4.22;;;;;;;4.38;88.87;101405.63;5049463;28;20436;-76
2022/12/01 04:07:12;;;;;;;5.78;3.50;;;;;;;4.38;88.24;101395.84;5051468;28;20021;-76
2022/12/01 04:09:40;;;;;;;4.55;3.40;;;;;;;4.37;88.12;101403.91;5049952;28;20040;-76
2022/12/01 04:14:52;;;;;;;5.65;3.90;;;;;;;4.43;88.06;101408.09;5049706;28;20064;-75
2022/12/01 04:17:18;;;;;;;6.03;3.75;;;;;;;4.44;87.77;101400.03;5049135;28;20017;-74
2022/12/01 04:19:43;;;;;;;4.05;3.13;;;;;;;4.40;87.35;101401.97;5049232;28;20025;-76
2022/12/01 04:22:08;;;;;;;6.60;3.88;;;;;;;4.36;87.54;101403.06;5049346;28;20025;-76
2022/12/01 04:24:34;;;;;;;4.82;3.45;;;;;;;4.39;87.67;101397.59;5052332;28;20025;-76
2022/12/01 04:26:59;;;;;;;4.28;3.33;;;;;;;4.32;87.70;101390.78;5053613;28;20023;-75
2022/12/01 04:29:25;;;;;;;5.43;4.10;;;;;;;4.45;87.54;101403.56;5051135;28;20037;-79
2022/12/01 04:31:50;;;;;;;8.38;3.75;;;;;;;4.47;87.38;101404.34;5053404;28;20111;-75
2022/12/01 04:34:15;;;;;;;7.43;3.20;;;;;;;4.42;87.55;101399.25;5053145;28;20040;-77
2022/12/01 04:36:41;;;;;;;6.68;3.95;;;;;;;4.48;87.39;101416.75;5053372;28;20094;-75
2022/12/01 04:39:06;;;;;;;5.65;3.47;;;;;;;4.33;87.26;101389.00;5053385;28;20039;-75
2022/12/01 04:41:32;;;;;;;6.57;3.65;;;;;;;4.49;86.98;101411.38;5053235;28;20029;-76
2022/12/01 04:43:58;;;;;;;7.03;4.13;;;;;;;4.43;86.92;101402.78;5053107;28;20377;-76
2022/12/01 04:46:23;;;;;;;4.70;3.50;;;;;;;4.42;86.80;101382.41;5053308;28;20028;-76
2022/12/01 04:48:49;;;;;;;6.10;4.15;;;;;;;4.57;87.27;101389.72;5056080;28;20040;-75
2022/12/01 04:51:14;;;;;;;4.97;3.75;;;;;;;4.53;86.55;101393.44;5058044;28;20519;-76
2022/12/01 04:53:40;;;;;;;6.30;3.28;;;;;;;4.51;86.63;101389.97;5054652;28;20041;-75
2022/12/01 04:56:06;;;;;;;3.50;2.80;;;;;;;4.44;86.94;101383.19;5052798;28;20029;-77
2022/12/01 04:58:32;;;;;;;6.57;2.35;;;;;;;4.39;86.86;101384.28;5053108;28;20079;-75
2022/12/01 05:01:04;;;;;;;7.30;3.15;;;;;;;4.36;86.94;101387.06;5052940;28;20090;-76
2022/12/01 05:03:29;;;;;;;5.07;3.03;;;;;;;4.13;87.17;101357.91;5053477;28;20365;-75
2022/12/01 05:06:22;;;;;;;4.63;3.28;;;;;;;4.24;87.11;101371.63;5052752;28;20033;-75
2022/12/01 05:08:49;;;;;;;5.00;3.55;;;;;;;4.18;87.61;101371.91;5010540;28;20077;-75
2022/12/01 05:11:16;;;;;;;9.45;4.63;;;;;;;4.09;88.00;101379.41;5010299;28;20544;-75
2022/12/01 05:13:44;;;;;;;8.73;4.93;;;;;;;4.08;88.50;101386.53;5010726;28;20235;-77
2022/12/01 05:16:13;;;;;;;4.30;3.58;;;;;;;4.07;89.01;101390.09;5010521;28;20183;-75
2022/12/01 05:18:39;;;;;;;3.97;2.97;;;;;;;4.09;89.14;101377.63;5010159;28;20051;-76
2022/12/01 05:21:07;;;;;;;4.82;3.47;;;;;;;4.15;88.77;101385.34;5010528;28;20038;-76
2022/12/01 05:23:34;;;;;;;6.03;3.45;;;;;;;4.20;89.24;101380.66;5009877;28;20029;-76
2022/12/01 05:26:01;;;;;;;8.70;4.63;;;;;;;4.24;89.23;101384.94;5009960;28;20049;-78
2022/12/01 05:28:27;;;;;;;5.43;3.92;;;;;;;4.22;89.26;101373.47;4977634;28;20082;-75
2022/12/01 05:30:53;;;;;;;8.85;2.97;;;;;;;4.21;89.57;101382.41;5009954;28;20529;-76
2022/12/01 05:33:20;;;;;;;5.57;3.90;;;;;;;4.17;89.94;101372.81;5012164;28;20034;-75
2022/12/01 05:35:47;;;;;;;8.07;3.10;;;;;;;4.16;89.97;101384.38;5010116;28;20156;-75
2022/12/01 05:38:12;;;;;;;6.57;2.67;;;;;;;4.13;89.91;101386.31;5009493;28;20073;-74
2022/12/01 05:40:38;;;;;;;10.05;3.72;;;;;;;4.11;90.09;101381.06;5009756;28;20026;-75
2022/12/01 05:43:04;;;;;;;5.25;4.07;;;;;;;4.14;90.18;101383.59;5009484;28;20084;-77
2022/12/01 05:45:31;;;;;;;14.63;4.65;;;;;;;4.11;90.11;101391.72;5029399;28;20048;-76
2022/12/01 05:47:58;;;;;;;6.53;2.45;;;;;;;4.08;90.39;101386.53;5051821;28;20113;-74
2022/12/01 05:50:25;;;;;;;4.28;2.53;;;;;;;4.09;90.58;101390.94;5052020;28;20056;-76
2022/12/01 05:52:51;;;;;;;8.43;3.95;;;;;;;4.09;90.53;101382.06;5051425;28;20056;-76
2022/12/01 05:55:18;;;;;;;9.07;4.97;;;;;;;4.13;90.80;101399.63;5055927;28;20053;-77
2022/12/01 05:57:43;;;;;;;6.68;4.20;;;;;;;4.13;91.34;101395.16;5058303;28;20025;-76
2022/12/01 06:00:10;;;;;;;8.80;4.20;;;;;;;4.12;91.38;101414.75;5056774;28;20124;-76
2022/12/01 06:02:35;;;;;;;11.63;6.43;;;;;;;4.13;91.58;101404.94;5049601;28;20500;-75
2022/12/01 06:05:01;;;;;;;8.80;3.60;;;;;;;4.27;91.91;101414.09;5051926;28;20141;-75
2022/12/01 06:07:26;;;;;;;6.00;3.75;;;;;;;4.06;91.66;101361.78;5051882;28;20110;-75
2022/12/01 06:09:53;;;;;;;2.95;2.67;;;;;;;4.24;91.46;101398.25;5051390;28;20546;-75
2022/12/01 06:12:19;;;;;;;10.45;4.18;;;;;;;4.29;91.54;101401.56;5051207;28;20114;-75
2022/12/01 06:14:44;;;;;;;6.82;3.47;;;;;;;4.31;91.43;101383.72;5050983;28;20060;-75
2022/12/01 06:17:10;;;;;;;12.98;4.22;;;;;;;4.32;90.90;101404.09;5049869;28;20457;-76
2022/12/01 06:19:35;;;;;;;9.23;3.40;;;;;;;4.33;90.63;101389.88;5051229;28;20040;-75
2022/12/01 06:22:01;;;;;;;5.85;2.78;;;;;;;4.31;90.46;101377.56;5050886;28;20028;-75
2022/12/01 06:24:27;;;;;;;5.70;3.60;;;;;;;4.28;90.32;101399.00;5051138;28;20116;-76
2022/12/01 06:26:52;;;;;;;5.63;3.30;;;;;;;4.30;90.43;101374.03;5050818;28;20553;-75
2022/12/01 06:29:17;;;;;;;7.03;4.35;;;;;;;4.25;90.94;101377.81;5051006;28;20052;-75
2022/12/01 06:31:43;;;;;;;5.53;3.50;;;;;;;4.26;91.07;101372.41;5050813;28;20025;-75
2022/12/01 06:34:09;;;;;;;5.07;3.35;;;;;;;4.28;91.21;101367.88;5050772;28;20056;-75
2022/12/01 06:36:34;;;;;;;9.20;3.95;;;;;;;4.25;91.66;101365.34;5055750;28;20021;-75
2022/12/01 06:39:00;;;;;;;8.32;4.10;;;;;;;4.29;91.22;101364.28;5060191;28;20649;-74
2022/12/01 06:41:25;;;;;;;5.65;3.28;;;;;;;4.24;91.15;101355.66;5058783;28;20117;-76
2022/12/01 06:43:51;;;;;;;6.93;3.35;;;;;;;4.35;91.40;101368.47;5058502;28;20128;-76
2022/12/01 06:46:16;;;;;;;6.15;3.65;;;;;;;4.36;91.15;101365.78;5057509;28;20203;-75
2022/12/01 06:48:41;;;;;;;8.93;4.60;;;;;;;4.38;91.67;101369.22;5050940;28;20136;-75
2022/12/01 06:51:07;;;;;;;7.25;4.03;;;;;;;4.46;91.69;101366.22;5050499;28;20041;-75
2022/12/01 06:53:32;;;;;;;6.90;4.10;;;;;;;4.26;91.32;101327.16;5050465;28;20021;-75
2022/12/01 06:55:59;;;;;;;9.35;3.35;;;;;;;4.46;90.85;101381.34;5050258;28;20029;-74
2022/12/01 06:58:25;;;;;;;6.75;3.97;;;;;;;4.16;90.77;101344.44;5051321;28;20032;-74
2022/12/01 07:00:50;;;;;;;7.50;4.40;;;;;;;4.37;91.45;101369.31;5052010;28;20029;-75
2022/12/01 07:03:16;;;;;;;12.07;3.53;;;;;;;4.51;91.73;101390.84;5054908;28;20029;-75
2022/12/01 07:05:41;;;;;;;7.57;3.22;;;;;;;4.52;91.65;101386.41;5055112;28;20505;-76
2022/12/01 07:08:06;;;;;;;5.38;3.65;;;;;;;4.43;91.40;101355.72;5050981;28;20131;-75
2022/12/01 07:10:32;;;;;;;6.72;4.18;;;;;;;4.65;90.63;101387.56;5050330;28;20039;-75
2022/12/01 07:12:57;;;;;;;6.93;3.28;;;;;;;4.70;90.76;101388.22;5050419;28;20103;-74
2022/12/01 07:15:23;;;;;;;10.25;7.25;;;;;;;4.70;90.29;101385.56;5050235;28;20476;-75
2022/12/01 07:17:49;;;;;;;8.15;3.67;;;;;;;4.69;89.95;101371.38;5050966;28;20104;-75
2022/12/01 07:20:14;;;;;;;6.25;4.05;;;;;;;4.70;89.91;101380.25;5052256;28;20033;-73
2022/12/01 07:22:41;;;;;;;9.13;4.07;;;;;;;4.67;89.47;101380.38;5052144;28;20036;-74
2022/12/01 07:25:07;;;;;;;5.78;3.85;;;;;;;4.65;89.22;101366.25;5050647;28;20025;-74
2022/12/01 07:27:33;;;;;;;8.38;3.72;;;;;;;4.47;89.60;101345.75;5049897;28;20077;-74
2022/12/01 07:29:58;;;;;;;5.35;3.95;;;;;;;4.57;90.04;101371.06;5049878;28;20025;-75
2022/12/01 07:32:24;;;;;;;8.40;3.70;;;;;;;4.63;90.38;101369.00;5049297;28;20488;-75
2022/12/01 07:34:49;;;;;;;5.75;4.00;;;;;;;4.65;90.36;101377.78;5049531;28;20051;-75
2022/12/01 07:37:15;;;;;;;7.97;4.82;;;;;;;4.69;90.28;101373.19;5048215;28;20116;-74
2022/12/01 07:39:40;;;;;;;11.60;4.18;;;;;;;4.71;90.64;101384.66;5049391;28;20052;-75
2022/12/01 07:42:06;;;;;;;10.77;3.97;;;;;;;4.70;90.07;101364.25;5030363;28;20041;-74
2022/12/01 07:44:31;;;;;;;13.82;4.68;;;;;;;4.52;90.33;101343.78;5049627;28;20032;-75
2022/12/01 07:46:56;;;;;;;16.17;7.57;;;;;;;4.72;90.44;101351.72;5049630;28;20170;-74
2022/12/01 07:49:22;;;;;;;6.13;3.92;;;;;;;4.74;90.50;101356.03;5049435;28;20773;-75
2022/12/01 07:51:47;;;;;;;23.52;13.57;;;;;;;4.81;90.20;101340.63;5047809;28;20036;-74
2022/12/01 07:54:13;;;;;;;8.20;4.18;;;;;;;4.84;89.91;101336.03;5049187;28;20029;-74
2022/12/01 07:56:39;;;;;;;4.70;3.03;;;;;;;4.77;89.88;101339.91;5049255;28;20025;-76
2022/12/01 07:59:05;;;;;;;5.53;3.55;;;;;;;4.75;89.91;101325.81;5048643;28;20416;-74
2022/12/01 08:01:30;;;;;;;8.48;3.95;;;;;;;4.84;90.22;101329.84;5049679;28;20535;-74
2022/12/01 08:03:57;;;;;;;8.38;4.38;;;;;;;4.85;90.47;101347.56;5049156;28;20108;-75
2022/12/01 08:06:24;;;;;;;8.43;4.55;;;;;;;4.69;90.77;101318.09;5049374;28;20025;-76
2022/12/01 08:08:50;;;;;;;7.28;3.05;;;;;;;4.69;90.50;101320.75;5052795;28;20057;-73
2022/12/01 08:11:24;;;;;;;6.95;4.70;;;;;;;4.89;89.88;101366.00;5052128;28;20346;-74
2022/12/01 08:13:50;;;;;;;7.30;4.93;;;;;;;4.84;90.20;101362.69;5052293;28;20028;-75
2022/12/01 08:16:17;;;;;;;6.63;4.32;;;;;;;4.84;90.48;101356.47;5049148;28;20488;-74
2022/12/01 08:18:43;;;;;;;4.57;3.53;;;;;;;4.86;90.61;101359.97;5049085;28;20088;-75
2022/12/01 08:21:11;;;;;;;6.75;4.35;;;;;;;4.97;90.38;101357.66;5049150;28;20400;-75
2022/12/01 08:23:36;;;;;;;5.80;3.72;;;;;;;4.90;89.96;101345.53;5049082;28;20099;-75
2022/12/01 08:26:04;;;;;;;4.95;2.97;;;;;;;5.01;89.93;101351.25;5049784;28;20032;-75
2022/12/01 08:28:30;;;;;;;4.22;3.20;;;;;;;4.98;89.65;101348.72;5047504;28;20032;-75
2022/12/01 08:30:56;;;;;;;6.75;4.32;;;;;;;5.04;89.64;101359.09;5049055;28;20489;-74
2022/12/01 08:33:22;;;;;;;8.10;4.95;;;;;;;5.09;89.44;101357.06;5048750;28;20074;-75
2022/12/01 08:35:47;;;;;;;13.63;6.82;;;;;;;5.22;90.14;101357.38;5047615;28;20021;-74
2022/12/01 08:38:12;;;;;;;9.75;5.55;;;;;;;5.09;90.51;101325.09;5048470;28;20029;-74
2022/12/01 08:40:38;;;;;;;6.88;4.05;;;;;;;5.39;90.14;101352.06;5049222;28;20480;-77
2022/12/01 08:43:04;;;;;;;9.88;3.83;;;;;;;5.42;89.84;101360.78;5048885;28;20465;-75
2022/12/01 08:45:29;;;;;;;6.13;4.40;;;;;;;5.45;89.19;101349.97;5048306;28;20550;-75
2022/12/01 08:47:57;;;;;;;8.70;5.13;;;;;;;5.46;88.77;101362.38;5049161;28;20025;-75
2022/12/01 08:50:24;;;;;;;10.82;6.88;;;;;;;5.44;88.63;101364.25;5048489;28;20049;-75
2022/12/01 08:52:50;;;;;;;13.50;4.88;;;;;;;5.62;88.78;101377.66;5050382;28;20600;-75
2022/12/01 08:55:15;;;;;;;8.85;4.15;;;;;;;5.60;88.28;101358.16;5048518;28;20064;-74
2022/12/01 08:57:41;;;;;;;6.38;3.83;;;;;;;5.61;87.93;101355.44;5048919;28;20798;-76
2022/12/01 09:00:06;;;;;;;6.85;3.10;;;;;;;5.65;87.40;101350.81;5048592;28;20048;-75
2022/12/01 09:02:32;;;;;;;8.15;4.35;;;;;;;5.62;87.57;101361.63;5048410;28;20112;-74
2022/12/01 09:04:57;;;;;;;9.48;5.70;;;;;;;5.68;87.98;101345.31;5048851;28;20036;-76
2022/12/01 09:07:23;;;;;;;8.20;5.00;;;;;;;5.79;88.10;101343.84;5048509;28;20041;-74
2022/12/01 09:09:49;;;;;;;9.82;5.35;;;;;;;5.88;88.19;101329.19;5050646;28;20035;-74
2022/12/01 09:12:14;;;;;;;8.07;4.30;;;;;;;6.06;87.43;101338.94;5052391;28;20064;-75
2022/12/01 09:14:46;;;;;;;13.02;5.50;;;;;;;6.08;86.90;101333.53;5054199;28;20056;-75
2022/12/01 09:17:13;;;;;;;8.18;3.97;;;;;;;6.19;86.84;101321.34;5057010;28;20029;-76
2022/12/01 09:19:38;;;;;;;12.23;6.20;;;;;;;6.18;86.69;101335.63;5056841;28;20037;-75
2022/12/01 09:22:04;;;;;;;8.80;3.88;;;;;;;6.15;85.39;101345.59;5052076;28;20040;-74
2022/12/01 09:24:29;;;;;;;7.85;4.82;;;;;;;6.03;85.32;101349.78;5052200;28;20021;-75
2022/12/01 09:26:56;;;;;;;7.90;5.82;;;;;;;6.05;85.04;101365.72;5052340;28;20427;-74
2022/12/01 09:29:22;;;;;;;14.75;6.78;;;;;;;6.07;85.60;101354.00;5052018;28;20491;-75
2022/12/01 09:31:48;;;;;;;13.48;5.60;;;;;;;6.07;85.96;101345.13;5050930;28;20118;-75
2022/12/01 09:34:16;;;;;;;14.32;6.03;;;;;;;6.21;86.02;101348.81;5051870;28;20535;-75
2022/12/01 09:36:41;;;;;;;10.93;5.82;;;;;;;6.13;85.80;101316.31;5052086;28;20484;-74
2022/12/01 09:39:10;;;;;;;11.30;5.38;;;;;;;6.39;85.49;101349.69;5051954;28;20139;-74
2022/12/01 09:41:39;;;;;;;13.55;7.55;;;;;;;6.35;85.03;101322.25;5051999;28;20032;-75
2022/12/01 09:44:19;;;;;;;15.30;7.95;;;;;;;6.51;84.83;101333.84;5051650;28;20100;-75
2022/12/01 09:46:56;;;;;;;11.73;6.78;;;;;;;6.46;84.31;101325.22;5051711;28;20082;-75
2022/12/01 09:49:28;;;;;;;8.90;5.45;;;;;;;6.42;83.79;101323.66;5054038;28;20061;-74
2022/12/01 09:51:54;;;;;;;6.22;4.20;;;;;;;6.45;83.75;101314.63;5052035;28;20021;-74
2022/12/01 09:54:20;;;;;;;13.48;6.20;;;;;;;6.44;83.79;101321.78;5051764;28;20032;-75
2022/12/01 09:56:49;;;;;;;7.78;5.28;;;;;;;6.24;83.99;101307.75;5052206;28;20040;-77
2022/12/01 09:59:25;;;;;;;16.67;5.85;;;;;;;6.32;84.05;101306.41;5052313;28;20033;-74
2022/12/01 10:01:54;;;;;;;14.50;7.13;;;;;;;6.38;84.20;101316.75;5051893;28;20029;-75
2022/12/01 10:04:30;;;;;;;13.30;6.28;;;;;;;6.49;84.06;101298.34;5051429;28;20029;-75
2022/12/01 10:06:58;;;;;;;12.65;6.47;;;;;;;6.34;84.25;101299.16;5051594;28;20420;-75
2022/12/01 10:09:50;;;;;;;12.35;6.38;;;;;;;6.36;84.42;101294.59;5051005;28;20025;-74
2022/12/01 10:12:18;;;;;;;10.20;5.93;;;;;;;6.30;84.18;101300.25;5051521;28;20021;-75
2022/12/01 10:14:48;;;;;;;11.38;6.32;;;;;;;6.36;84.04;101285.72;5051209;28;20056;-75
2022/12/01 10:17:16;;;;;;;9.23;5.70;;;;;;;6.36;83.92;101286.56;5051563;28;20068;-75
2022/12/01 10:19:54;;;;;;;11.98;7.47;;;;;;;6.26;84.03;101290.69;5051322;28;20047;-74
2022/12/01 10:22:38;;;;;;;15.63;7.07;;;;;;;6.25;83.37;101277.41;5053378;28;20036;-75
2022/12/01 10:25:25;;;;;;;18.65;9.40;;;;;;;6.22;83.29;101273.09;5056555;28;20033;-75
2022/12/01 10:28:08;;;;;;;21.35;9.68;;;;;;;6.07;83.70;101279.25;5054321;28;20035;-76
2022/12/01 10:30:46;;;;;;;13.82;8.48;;;;;;;5.88;84.39;101262.44;5050092;28;20036;-75
2022/12/01 10:33:14;;;;;;;17.58;9.48;;;;;;;5.83;85.22;101251.13;5050814;28;20108;-74
2022/12/01 10:35:40;;;;;;;26.23;9.50;;;;;;;5.91;85.66;101259.63;5051159;28;20036;-74
2022/12/01 10:38:18;;;;;;;23.00;10.93;;;;;;;5.86;85.68;101259.88;5065377;28;20040;-76
2022/12/01 10:40:44;;;;;;;20.65;10.43;;;;;;;5.92;86.05;101261.38;5050919;28;20430;-74
2022/12/01 10:43:09;;;;;;;17.05;9.85;;;;;;;5.85;86.52;101243.91;5050735;28;20025;-77
2022/12/01 10:45:40;;;;;;;19.15;8.48;;;;;;;5.79;86.77;101236.22;5051025;28;20044;-75
2022/12/01 10:48:16;;;;;;;26.35;14.75;;;;;;;5.69;87.25;101229.63;5050772;28;20408;-76
2022/12/01 10:50:51;;;;;;;23.85;13.48;;;;;;;5.66;88.02;101219.97;5050640;28;20068;-74
2022/12/01 10:53:22;;;;;;;24.95;11.57;;;;;;;5.61;88.69;101226.47;5050356;28;20029;-75
2022/12/01 10:56:01;;;;;;;17.75;9.70;;;;;;;5.62;88.99;101228.22;5050521;28;20107;-74
2022/12/01 10:58:26;;;;;;;16.50;9.30;;;;;;;5.64;89.26;101223.66;5050762;28;20136;-75
2022/12/01 11:00:59;;;;;;;13.82;7.43;;;;;;;5.55;89.67;101210.78;5050969;28;20111;-76
2022/12/01 11:03:28;;;;;;;10.10;7.43;;;;;;;5.71;90.00;101239.28;5050698;28;20021;-75
2022/12/01 11:05:57;;;;;;;11.18;7.13;;;;;;;5.74;90.14;101239.13;5048649;28;20048;-74
2022/12/01 11:08:30;;;;;;;13.75;6.50;;;;;;;5.73;89.73;101241.88;5050730;28;20056;-76
2022/12/01 11:10:56;;;;;;;11.95;6.82;;;;;;;5.56;90.16;101228.53;5050904;28;20025;-75
2022/12/01 11:13:30;;;;;;;13.40;6.22;;;;;;;5.73;90.40;101258.75;5050528;28;20542;-75
2022/12/01 11:15:58;;;;;;;10.07;5.57;;;;;;;5.74;90.14;101264.94;5051179;28;20095;-74
2022/12/01 11:18:26;;;;;;;10.07;6.13;;;;;;;5.71;90.13;101257.09;5050517;28;20029;-74
2022/12/01 11:21:34;;;;;;;8.90;5.10;;;;;;;5.84;89.86;101264.38;5050977;28;20047;-76
2022/12/01 11:24:00;;;;;;;10.85;6.13;;;;;;;5.70;90.14;101245.56;5008018;28;20048;-75
2022/12/01 11:26:29;;;;;;;16.45;7.13;;;;;;;5.70;90.22;101250.03;5008348;28;20046;-74
2022/12/01 11:29:20;;;;;;;8.90;5.50;;;;;;;5.74;90.38;101257.81;5010055;28;20092;-75
2022/12/01 11:31:49;;;;;;;13.85;6.68;;;;;;;5.59;90.75;101237.25;5011016;28;20464;-75
2022/12/01 11:34:20;;;;;;;15.00;7.82;;;;;;;5.24;90.80;101199.00;5010306;28;20042;-75
2022/12/01 11:36:54;;;;;;;9.45;4.78;;;;;;;5.70;91.01;101260.69;5007867;28;20049;-74
2022/12/01 11:39:25;;;;;;;11.85;6.50;;;;;;;5.71;91.24;101262.44;5007534;28;20034;-75
2022/12/01 11:42:01;;;;;;;9.43;5.32;;;;;;;5.84;91.19;101276.88;5007921;28;20508;-76
2022/12/01 11:44:28;;;;;;;7.35;4.97;;;;;;;5.80;91.01;101269.97;5008376;28;20033;-75
2022/12/01 11:46:54;;;;;;;9.07;5.68;;;;;;;5.78;90.79;101264.69;5008913;28;20044;-75